createdAt,value
2017-12-16T02:45:42.921Z,12.15
2017-12-16T02:48:14.893Z,11.65
2017-12-16T02:50:48.143Z,12.30
2017-12-16T02:53:24.473Z,12.30
2017-12-16T02:55:59.708Z,13.15
2017-12-16T02:58:34.408Z,13.45
2017-12-16T03:01:06.955Z,12.88
2017-12-16T03:03:38.646Z,13.82
2017-12-16T03:06:10.930Z,13.45
2017-12-16T03:08:42.603Z,16.10
2017-12-16T03:11:15.106Z,17.17
2017-12-16T03:13:47.616Z,19.12
2017-12-16T03:16:20.187Z,18.62
2017-12-16T03:18:55.938Z,21.87
2017-12-16T03:21:28.016Z,19.83
2017-12-16T03:24:00.768Z,18.98
2017-12-16T03:26:32.318Z,19.37
2017-12-16T03:29:04.139Z,19.85
2017-12-16T03:31:36.087Z,18.23
2017-12-16T03:34:08.205Z,18.55
2017-12-16T03:36:39.851Z,19.23
2017-12-16T03:39:11.516Z,18.98
2017-12-16T03:41:43.160Z,20.23
2017-12-16T03:44:15.153Z,19.00
2017-12-16T03:46:47.456Z,20.02
2017-12-16T03:49:19.245Z,19.77
2017-12-16T03:51:50.710Z,19.83
2017-12-16T03:54:22.415Z,19.60
2017-12-16T03:56:53.641Z,21.12
2017-12-16T03:59:25.950Z,19.00
2017-12-16T04:01:57.037Z,19.40
2017-12-16T04:04:28.849Z,20.50
2017-12-16T04:07:00.143Z,20.62
2017-12-16T04:09:31.834Z,19.85
2017-12-16T04:12:12.492Z,20.55
2017-12-16T04:14:44.608Z,18.70
2017-12-16T04:17:16.448Z,23.30
2017-12-16T04:19:48.300Z,21.25
2017-12-16T04:22:19.904Z,20.35
2017-12-16T04:24:51.601Z,22.42
2017-12-16T04:27:22.701Z,22.10
2017-12-16T04:29:54.294Z,21.23
2017-12-16T04:32:25.456Z,22.60
2017-12-16T04:34:58.420Z,21.23
2017-12-16T04:37:30.243Z,20.62
2017-12-16T04:40:02.095Z,26.15
2017-12-16T04:42:34.177Z,24.12
2017-12-16T04:45:06.247Z,21.27
2017-12-16T04:47:37.592Z,19.73
2017-12-16T04:50:10.652Z,20.40
2017-12-16T04:52:41.852Z,20.30
2017-12-16T04:55:14.599Z,21.20
2017-12-16T04:57:46.581Z,18.85
2017-12-16T05:00:18.011Z,19.25
2017-12-16T05:02:49.308Z,19.73
2017-12-16T05:05:21.786Z,22.65
2017-12-16T05:07:53.963Z,19.00
2017-12-16T05:10:25.273Z,19.55
2017-12-16T05:12:57.178Z,18.55
2017-12-16T05:15:28.464Z,21.37
2017-12-16T05:18:00.492Z,20.05
2017-12-16T05:20:32.310Z,19.50
2017-12-16T05:23:03.814Z,19.80
2017-12-16T05:25:35.499Z,19.10
2017-12-16T05:28:07.024Z,21.12
2017-12-16T05:30:39.068Z,17.95
2017-12-16T05:33:10.172Z,20.02
2017-12-16T05:35:41.898Z,17.90
2017-12-16T05:38:13.912Z,18.37
2017-12-16T05:40:45.414Z,16.95
2017-12-16T05:43:17.284Z,17.27
2017-12-16T05:45:48.844Z,16.15
2017-12-16T05:48:20.315Z,17.45
2017-12-16T05:50:52.104Z,17.83
2017-12-16T05:53:23.445Z,17.58
2017-12-16T05:55:55.116Z,17.52
2017-12-16T05:58:27.045Z,17.55
2017-12-16T06:00:58.770Z,16.35
2017-12-16T06:03:32.177Z,15.75
2017-12-16T06:06:06.203Z,16.15
2017-12-16T06:08:40.547Z,15.05
2017-12-16T06:11:11.915Z,14.55
2017-12-16T06:13:44.893Z,15.30
2017-12-16T06:16:16.524Z,14.70
2017-12-16T06:18:49.335Z,14.15
2017-12-16T06:21:21.246Z,13.75
2017-12-16T06:23:53.132Z,13.85
2017-12-16T06:26:24.911Z,14.45
2017-12-16T06:28:56.339Z,12.85
2017-12-16T06:31:29.061Z,13.10
2017-12-16T06:34:01.202Z,12.85
2017-12-16T06:36:35.930Z,13.52
2017-12-16T06:39:07.943Z,12.23
2017-12-16T06:41:39.237Z,12.48
2017-12-16T06:44:10.565Z,13.50
2017-12-16T06:46:42.520Z,13.70
2017-12-16T06:49:15.557Z,15.25
2017-12-16T06:51:47.093Z,14.60
2017-12-16T06:54:18.567Z,13.73
2017-12-16T06:56:49.858Z,13.65
2017-12-16T06:59:22.804Z,14.32
2017-12-16T07:01:54.070Z,14.40
2017-12-16T07:04:25.854Z,13.60
2017-12-16T07:06:57.220Z,13.98
2017-12-16T07:09:30.170Z,13.82
2017-12-16T07:12:01.457Z,13.80
2017-12-16T07:14:34.421Z,15.15
2017-12-16T07:17:06.772Z,15.40
2017-12-16T07:19:38.582Z,15.68
2017-12-16T07:22:10.861Z,15.65
2017-12-16T07:24:43.656Z,16.08
2017-12-16T07:27:15.851Z,19.05
2017-12-16T07:29:48.814Z,15.10
2017-12-16T07:32:20.086Z,15.20
2017-12-16T07:34:51.541Z,15.70
2017-12-16T07:37:22.684Z,14.90
2017-12-16T07:39:54.273Z,14.13
2017-12-16T07:42:25.318Z,14.27
2017-12-16T07:44:56.834Z,14.63
2017-12-16T07:47:28.430Z,15.68
2017-12-16T07:50:00.334Z,14.02
2017-12-16T07:52:32.436Z,13.98
2017-12-16T07:55:06.266Z,13.48
2017-12-16T07:57:38.250Z,16.50
2017-12-16T08:00:10.259Z,13.82
2017-12-16T08:02:41.854Z,14.85
2017-12-16T08:05:13.381Z,14.48
2017-12-16T08:07:45.363Z,15.57
2017-12-16T08:10:16.683Z,13.65
2017-12-16T08:12:48.191Z,13.52
2017-12-16T08:15:19.730Z,12.80
2017-12-16T08:17:55.645Z,12.95
2017-12-16T08:20:30.066Z,10.70
2017-12-16T08:23:05.580Z,12.15
2017-12-16T08:25:40.890Z,11.10
2017-12-16T08:28:14.269Z,11.15
2017-12-16T08:30:50.136Z,12.15
2017-12-16T08:33:22.415Z,11.12
2017-12-16T08:35:54.850Z,9.98
2017-12-16T08:38:29.779Z,11.00
2017-12-16T08:41:02.339Z,9.00
2017-12-16T08:43:36.191Z,9.77
2017-12-16T08:46:07.918Z,9.65
2017-12-16T08:48:42.411Z,8.77
2017-12-16T08:51:14.042Z,9.77
2017-12-16T08:53:45.530Z,8.57
2017-12-16T08:56:19.360Z,8.10
2017-12-16T08:58:56.360Z,8.60
2017-12-16T09:01:29.861Z,9.77
2017-12-16T09:04:01.890Z,8.75
2017-12-16T09:06:34.776Z,9.15
2017-12-16T09:09:13.002Z,8.00
2017-12-16T09:11:45.525Z,8.50
2017-12-16T09:14:17.673Z,8.45
2017-12-16T09:16:51.481Z,7.62
2017-12-16T09:19:27.052Z,8.85
2017-12-16T09:22:04.902Z,8.90
2017-12-16T09:24:38.687Z,8.63
2017-12-16T09:27:12.053Z,8.13
2017-12-16T09:29:46.767Z,7.82
2017-12-16T09:32:18.833Z,8.70
2017-12-16T09:34:50.675Z,8.20
2017-12-16T09:37:22.617Z,7.28
2017-12-16T09:39:53.828Z,6.80
2017-12-16T09:42:28.887Z,7.18
2017-12-16T09:45:02.586Z,7.70
2017-12-16T09:47:34.572Z,7.07
2017-12-16T09:50:07.987Z,7.15
2017-12-16T09:52:41.541Z,7.40
2017-12-16T09:55:15.710Z,8.20
2017-12-16T09:57:48.295Z,7.97
2017-12-16T10:00:23.303Z,8.13
2017-12-16T10:02:55.967Z,9.52
2017-12-16T10:05:34.227Z,9.52
2017-12-16T10:08:10.021Z,10.20
2017-12-16T10:10:42.569Z,9.43
2017-12-16T10:13:15.678Z,9.73
2017-12-16T10:15:52.608Z,10.20
2017-12-16T10:18:29.607Z,10.15
2017-12-16T10:21:06.165Z,10.30
2017-12-16T10:23:43.228Z,10.45
2017-12-16T10:26:16.262Z,9.77
2017-12-16T10:28:48.807Z,10.68
2017-12-16T10:31:22.397Z,11.60
2017-12-16T10:34:00.991Z,11.07
2017-12-16T10:36:33.843Z,11.70
2017-12-16T10:39:10.925Z,11.90
2017-12-16T10:41:54.466Z,11.40
2017-12-16T10:44:39.615Z,16.20
2017-12-16T10:47:17.567Z,12.98
2017-12-16T10:50:07.938Z,14.57
2017-12-16T10:52:41.407Z,13.65
2017-12-16T10:55:24.301Z,14.75
2017-12-16T10:58:09.527Z,15.50
2017-12-16T11:00:50.636Z,14.25
2017-12-16T11:03:29.395Z,14.90
2017-12-16T11:06:06.698Z,14.80
2017-12-16T11:08:43.644Z,13.65
2017-12-16T11:11:26.737Z,14.63
2017-12-16T11:14:00.715Z,13.80
2017-12-16T11:16:32.738Z,14.57
2017-12-16T11:19:06.675Z,15.50
2017-12-16T11:21:38.731Z,13.20
2017-12-16T11:24:11.597Z,15.85
2017-12-16T11:26:56.293Z,14.57
2017-12-16T11:29:32.977Z,13.70
2017-12-16T11:32:10.631Z,14.95
2017-12-16T11:34:47.487Z,15.03
2017-12-16T11:37:20.411Z,15.67
2017-12-16T11:40:03.238Z,13.20
2017-12-16T11:42:50.123Z,13.63
2017-12-16T11:45:31.236Z,14.37
2017-12-16T11:48:09.480Z,13.03
2017-12-16T11:50:50.984Z,13.80
2017-12-16T11:53:28.752Z,12.33
2017-12-16T11:56:03.561Z,13.10
2017-12-16T11:58:37.439Z,14.00
2017-12-16T12:01:13.191Z,12.80
2017-12-16T12:03:45.645Z,13.73
2017-12-16T12:06:19.214Z,13.70
2017-12-16T12:08:52.071Z,13.77
2017-12-16T12:11:28.520Z,13.97
2017-12-16T12:14:00.510Z,13.27
2017-12-16T12:16:32.847Z,13.80
2017-12-16T12:19:06.420Z,13.13
2017-12-16T12:21:42.475Z,13.57
2017-12-16T12:24:19.640Z,13.87
2017-12-16T12:29:43.447Z,12.47
2017-12-16T12:32:18.254Z,13.90
2017-12-16T12:34:59.017Z,13.30
2017-12-16T12:37:38.013Z,13.40
2017-12-16T12:40:14.977Z,13.00
2017-12-16T12:42:49.136Z,11.97
2017-12-16T12:45:24.450Z,12.02
2017-12-16T12:47:59.718Z,12.25
2017-12-16T12:50:40.453Z,11.67
2017-12-16T12:53:18.540Z,11.97
2017-12-16T12:55:55.689Z,12.93
2017-12-16T12:58:39.421Z,11.50
2017-12-16T13:01:19.444Z,11.43
2017-12-16T13:03:59.234Z,11.23
2017-12-16T13:06:41.390Z,10.77
2017-12-16T13:09:19.495Z,12.23
2017-12-16T13:12:04.233Z,12.13
2017-12-16T13:14:47.251Z,11.90
2017-12-16T13:17:23.129Z,13.50
2017-12-16T13:22:45.634Z,12.97
2017-12-16T13:25:19.508Z,11.53
2017-12-16T13:27:56.302Z,10.67
2017-12-16T13:30:31.357Z,9.67
2017-12-16T13:33:08.522Z,9.20
2017-12-16T13:35:42.790Z,9.57
2017-12-16T13:38:25.478Z,9.83
2017-12-16T13:41:11.544Z,8.43
2017-12-16T13:43:44.131Z,8.60
2017-12-16T13:46:16.899Z,10.97
2017-12-16T13:48:54.151Z,9.57
2017-12-16T13:51:33.363Z,9.70
2017-12-16T13:54:11.482Z,9.50
2017-12-16T13:56:49.854Z,9.73
2017-12-16T13:59:23.830Z,9.87
2017-12-16T14:01:57.689Z,8.67
2017-12-16T14:04:37.853Z,9.50
2017-12-16T14:07:12.760Z,10.30
2017-12-16T14:09:50.039Z,10.10
2017-12-16T14:12:23.172Z,9.10
2017-12-16T14:17:51.785Z,10.30
2017-12-16T14:20:29.321Z,9.33
2017-12-16T14:23:05.924Z,9.87
2017-12-16T14:25:49.628Z,8.47
2017-12-16T14:28:31.952Z,8.73
2017-12-16T14:31:08.132Z,8.80
2017-12-16T14:33:44.992Z,8.33
2017-12-16T14:36:24.295Z,8.93
2017-12-16T14:39:01.743Z,8.13
2017-12-16T14:41:43.424Z,10.30
2017-12-16T14:44:22.583Z,8.60
2017-12-16T14:47:06.602Z,9.37
2017-12-16T14:49:47.762Z,10.33
2017-12-16T14:52:22.140Z,9.15
2017-12-16T14:54:59.104Z,10.60
2017-12-16T14:57:43.728Z,10.30
2017-12-16T15:00:21.691Z,9.57
2017-12-16T15:03:04.785Z,8.97
2017-12-16T15:05:47.470Z,9.90
2017-12-16T15:08:24.480Z,10.57
2017-12-16T15:11:05.412Z,8.90
2017-12-16T15:13:41.836Z,9.77
2017-12-16T15:16:16.626Z,10.07
2017-12-16T15:18:51.521Z,10.27
2017-12-16T15:21:32.465Z,9.90
2017-12-16T15:24:08.053Z,10.95
2017-12-16T15:26:44.236Z,8.87
2017-12-16T15:29:20.161Z,9.88
2017-12-16T15:31:56.864Z,8.25
2017-12-16T15:34:31.218Z,8.00
2017-12-16T15:37:05.804Z,8.23
2017-12-16T15:39:43.025Z,8.00
2017-12-16T15:42:15.446Z,7.22
2017-12-16T15:44:51.849Z,7.28
2017-12-16T15:47:26.453Z,7.00
2017-12-16T15:50:11.892Z,7.15
2017-12-16T15:52:44.844Z,7.10
2017-12-16T15:55:17.510Z,6.62
2017-12-16T15:57:51.488Z,8.30
2017-12-16T16:00:24.027Z,7.30
2017-12-16T16:02:58.456Z,7.22
2017-12-16T16:05:32.292Z,6.75
2017-12-16T16:08:08.850Z,7.10
2017-12-16T16:10:40.965Z,8.10
2017-12-16T16:13:14.424Z,8.27
2017-12-16T16:15:48.641Z,7.72
2017-12-16T16:18:25.320Z,9.75
2017-12-16T16:21:03.266Z,8.10
2017-12-16T16:23:40.078Z,11.12
2017-12-16T16:26:15.832Z,7.70
2017-12-16T16:28:59.872Z,6.72
2017-12-16T16:31:39.627Z,8.48
2017-12-16T16:34:17.483Z,6.95
2017-12-16T16:36:54.408Z,7.68
2017-12-16T16:39:32.643Z,8.15
2017-12-16T16:42:05.734Z,6.00
2017-12-16T16:44:41.359Z,5.45
2017-12-16T16:47:17.523Z,6.93
2017-12-16T16:49:49.808Z,7.75
2017-12-16T16:52:23.239Z,7.87
2017-12-16T16:54:56.820Z,8.80
2017-12-16T16:57:29.932Z,9.38
2017-12-16T17:00:03.651Z,8.55
2017-12-16T17:02:36.890Z,10.23
2017-12-16T17:05:13.804Z,10.02
2017-12-16T17:07:47.311Z,9.32
2017-12-16T17:10:22.448Z,9.30
2017-12-16T17:12:54.904Z,9.80
2017-12-16T17:15:29.561Z,9.10
2017-12-16T17:18:04.896Z,8.73
2017-12-16T17:20:36.626Z,9.90
2017-12-16T17:23:11.346Z,12.00
2017-12-16T17:25:44.656Z,9.40
2017-12-16T17:28:18.208Z,9.77
2017-12-16T17:30:52.100Z,10.18
2017-12-16T17:33:29.935Z,9.13
2017-12-16T17:36:01.622Z,10.15
2017-12-16T17:38:36.483Z,8.52
2017-12-16T17:41:10.944Z,8.95
2017-12-16T17:43:49.135Z,9.55
2017-12-16T17:46:21.275Z,9.82
2017-12-16T17:48:56.612Z,10.20
2017-12-16T17:51:29.282Z,10.52
2017-12-16T17:54:02.757Z,11.15
2017-12-16T17:56:38.332Z,9.52
2017-12-16T17:59:10.339Z,9.02
2017-12-16T18:01:42.054Z,8.40
2017-12-16T18:04:15.047Z,8.48
2017-12-16T18:06:47.676Z,8.20
2017-12-16T18:09:22.484Z,9.90
2017-12-16T18:11:58.972Z,9.15
2017-12-16T18:14:32.240Z,8.68
2017-12-16T18:17:06.933Z,9.07
2017-12-16T18:19:38.473Z,7.95
2017-12-16T18:22:11.551Z,7.95
2017-12-16T18:24:43.461Z,7.28
2017-12-16T18:27:16.996Z,6.70
2017-12-16T18:29:50.268Z,7.30
2017-12-16T18:32:23.239Z,7.15
2017-12-16T18:34:57.586Z,6.82
2017-12-16T18:37:30.600Z,6.40
2017-12-16T18:40:15.408Z,7.18
2017-12-16T18:42:48.396Z,7.37
2017-12-16T18:45:26.433Z,6.70
2017-12-16T18:47:59.202Z,7.50
2017-12-16T18:50:32.812Z,9.05
2017-12-16T18:53:06.766Z,6.65
2017-12-16T18:55:40.995Z,6.47
2017-12-16T18:58:12.659Z,6.00
2017-12-16T19:00:49.979Z,7.32
2017-12-16T19:03:28.590Z,6.25
2017-12-16T19:06:01.093Z,6.60
2017-12-16T19:08:34.215Z,8.48
2017-12-16T19:11:08.522Z,6.57
2017-12-16T19:13:43.834Z,9.80
2017-12-16T19:16:23.649Z,6.78
2017-12-16T19:18:59.078Z,7.22
2017-12-16T19:21:43.251Z,8.90
2017-12-16T19:24:25.981Z,7.07
2017-12-16T19:27:07.788Z,6.90
2017-12-16T19:29:51.355Z,6.25
2017-12-16T19:32:30.769Z,8.55
2017-12-16T19:35:09.422Z,7.25
2017-12-16T19:37:44.888Z,6.72
2017-12-16T19:40:19.980Z,9.52
2017-12-16T19:42:57.398Z,7.07
2017-12-16T19:45:39.628Z,7.40
2017-12-16T19:48:14.986Z,8.10
2017-12-16T19:50:52.624Z,7.65
2017-12-16T19:53:31.129Z,7.10
2017-12-16T19:56:11.660Z,7.15
2017-12-16T20:01:33.268Z,7.53
2017-12-16T20:04:14.432Z,7.10
2017-12-16T20:07:01.563Z,7.62
2017-12-16T20:09:37.366Z,8.82
2017-12-16T20:12:14.128Z,6.55
2017-12-16T20:14:50.201Z,5.62
2017-12-16T20:17:24.393Z,6.43
2017-12-16T20:19:56.428Z,5.37
2017-12-16T20:22:28.885Z,5.78
2017-12-16T20:25:04.339Z,6.03
2017-12-16T20:27:38.996Z,6.03
2017-12-16T20:30:17.654Z,7.45
2017-12-16T20:32:59.764Z,7.60
2017-12-16T20:35:32.834Z,8.15
2017-12-16T20:38:07.635Z,7.93
2017-12-16T20:40:43.024Z,5.82
2017-12-16T20:43:18.420Z,6.45
2017-12-16T20:45:55.773Z,6.15
2017-12-16T20:48:31.063Z,5.82
2017-12-16T20:51:05.501Z,7.47
2017-12-16T20:53:38.502Z,6.30
2017-12-16T20:56:18.000Z,6.90
2017-12-16T20:58:56.705Z,6.30
2017-12-16T21:01:30.933Z,5.82
2017-12-16T21:04:03.295Z,6.30
2017-12-16T21:06:38.323Z,7.87
2017-12-16T21:09:12.113Z,6.07
2017-12-16T21:11:47.153Z,6.15
2017-12-16T21:14:23.551Z,6.35
2017-12-16T21:17:07.483Z,6.15
2017-12-16T21:19:46.003Z,5.95
2017-12-16T21:22:24.804Z,7.95
2017-12-16T21:27:42.035Z,5.22
2017-12-16T21:30:22.478Z,5.87
2017-12-16T21:32:58.694Z,5.95
2017-12-16T21:35:39.990Z,5.30
2017-12-16T21:38:15.592Z,6.95
2017-12-16T21:40:49.359Z,5.40
2017-12-16T21:43:25.843Z,6.65
2017-12-16T21:45:59.447Z,4.90
2017-12-16T21:48:35.423Z,6.43
2017-12-16T21:51:11.911Z,4.80
2017-12-16T21:53:52.490Z,5.25
2017-12-16T21:56:28.467Z,5.03
2017-12-16T21:59:07.964Z,4.35
2017-12-16T22:01:46.828Z,4.85
2017-12-16T22:04:20.312Z,5.72
2017-12-16T22:06:52.964Z,4.12
2017-12-16T22:09:34.851Z,6.93
2017-12-16T22:12:17.927Z,3.95
2017-12-16T22:14:59.149Z,8.10
2017-12-16T22:20:27.732Z,3.80
2017-12-16T22:23:06.532Z,5.10
2017-12-16T22:25:41.266Z,8.13
2017-12-16T22:28:22.717Z,5.37
2017-12-16T22:31:00.237Z,6.45
2017-12-16T22:33:35.884Z,4.70
2017-12-16T22:36:10.502Z,4.82
2017-12-16T22:38:44.243Z,5.40
2017-12-16T22:41:24.335Z,5.85
2017-12-16T22:46:48.914Z,5.30
2017-12-16T22:52:16.639Z,5.72
2017-12-16T22:55:01.090Z,4.70
2017-12-16T22:57:35.321Z,6.20
2017-12-16T23:00:50.072Z,4.57
2017-12-16T23:03:27.545Z,5.82
2017-12-16T23:06:01.369Z,4.62
2017-12-16T23:08:35.505Z,5.35
2017-12-16T23:11:18.874Z,4.43
2017-12-16T23:14:05.616Z,4.62
2017-12-16T23:16:43.455Z,4.55
2017-12-16T23:19:15.984Z,5.20
2017-12-16T23:21:58.000Z,4.07
2017-12-16T23:24:31.489Z,5.18
2017-12-16T23:27:04.303Z,4.95
2017-12-16T23:29:39.523Z,5.07
2017-12-16T23:32:12.757Z,5.90
2017-12-16T23:34:47.120Z,4.53
2017-12-16T23:37:24.988Z,5.43
2017-12-16T23:39:59.212Z,4.47
2017-12-16T23:42:35.187Z,4.53
2017-12-16T23:45:12.446Z,5.40
2017-12-16T23:47:48.228Z,4.95
2017-12-16T23:50:22.122Z,5.00
2017-12-16T23:52:55.570Z,4.30
2017-12-16T23:55:27.683Z,5.75
2017-12-16T23:57:59.709Z,5.40
